Hovedside
METAR-TAF:

METAR-TAF

Lufthavner :

Linköping, Sverige

Flystasjon

breddegrad: 58-24N, lengdegrad: 015-31E, høyde over havet: 93 m

Gjeldene værobservasjon

Denne rapporten ble laget for 25 minutter siden, klokken 18:20 UTC
Vind 8 kt fra Nordøst
Temperatur 12°C
Luftfuktighet 94%
Trykk 1022 hPa
Sikt: 8000 m
lett duskregn, dis

METAR: ESCF 221820Z AUTO 04008KT 8000 -DZ BR BKN004/// OVC006/// 12/11 Q1022

Tid: 20:45 (18:45 UTC)

Varsel

Denne rapporten ble laget for 1 time og 20 minutter siden, klokken 17:25 UTC
Varsel gyldig fra 22. klokken 18 UTC til 23. klokken 03 UTC
Vind 6 kt fra Nordøst
Sikt: 5000 m
Brutte skyer i en høyde av 800 ft
dis
Sannsynlighet 30%
fra 22. klokken 18 UTC til 23. klokken 03 UTC
Sikt: 0600 m
i en høyde av 200 ft
tåke

TAF: ESCF 221725Z 2218/2303 04006KT 5000 BR BKN008 PROB30 2218/2303 0600 FG VV002 RMK MIL

Værobservasjoner og værvarsel for over 4000 flyplasser (METAR- og TAF-rapporter).

Tilgjengelige stasjoner er representert av de røde og gule prikkene på kartet.

Hold musepekeren over prikken for å se navnet på stasjonen.

Klikk så for å se værobservasjoner og -varsler.

For å forandre kartet kan du klikke på den grønne knappen med svart kryss for å zoome inn, på den grønne knappen med strek for å zoome ut, eller på de grønne pilene for å se tilstøtende kart.


METAR-TAF: